Latest Weather Observations for Bougainville Reef

IDQ60801

Issued at 10:52 pm EST Saturday 22 September 2018 (issued every 10 minutes, with the page automatically refreshed every 10 minutes)

About weather observations | Map of weather stations | Latest weather observations for QLD | Other Formats
Station Details ID: 200840 Name: BOUGAINVILLE REEF Lat: -15.49 Lon: 147.12 Height: 0.0 m
Data from the previous 72 hours. | See also: Recent months for locations in Queensland
Date/Time
EST
Temp
°C
App
Temp
°C
Dew
Point
°C
Rel
Hum
%
Delta-T
°C
Wind Press
QNH
hPa
Press
MSL
hPa
Rain since
9am
mm
Dir  Spd
km/h
Gust
km/h
Spd
kts
Gust
kts
22/10:30pm 24.4 - - - - SE 44 50 24 27 1018.8 - -
22/10:00pm 24.3 - - - - SE 44 50 24 27 1018.8 1018.7 -
22/09:30pm 24.2 - - - - SE 44 50 24 27 1018.7 - -
22/09:00pm 24.5 - - - - SE 46 54 25 29 1018.5 1018.4 -
22/08:30pm 24.6 - - - - SE 46 54 25 29 1018.4 - -
22/08:00pm 24.4 - - - - SE 46 57 25 31 1018.0 1017.8 -
22/07:30pm 24.3 - - - - SE 48 54 26 29 1017.7 - -
22/07:00pm 24.5 - - - - SE 46 57 25 31 1017.4 1017.2 -
22/06:30pm 24.2 - - - - SE 44 56 24 30 1017.1 - -
22/06:00pm 24.3 - - - - SE 46 54 25 29 1016.9 1016.7 -
22/05:30pm 24.4 - - - - SE 52 59 28 32 1016.5 - -
22/05:00pm 24.4 - - - - SE 48 56 26 30 1016.3 1016.2 -
22/04:30pm 24.4 - - - - SSE 48 56 26 30 1016.2 - -
22/04:00pm 24.4 - - - - SSE 52 57 28 31 1016.0 1015.9 -
22/03:30pm 24.5 - - - - SSE 50 57 27 31 1016.0 - -
22/03:00pm 24.2 - - - - SE 48 54 26 29 1016.0 1015.9 -
22/02:30pm 24.3 - - - - SE 52 57 28 31 1016.0 - -
22/02:00pm 23.8 - - - - SE 54 54 29 29 1016.3 1016.4 -
22/01:30pm 23.9 - - - - SE 50 57 27 31 1016.7 - -
22/01:00pm 24.1 - - - - SE 46 56 25 30 1017.1 1017.1 -
22/12:30pm 23.0 - - - - SE 50 65 27 35 1017.4 - -
22/12:26pm 23.2 - - - - SE 43 61 23 33 1017.4 - -
22/12:00pm 24.1 - - - - SE 39 59 21 32 1017.7 1017.9 -
22/11:30am 24.4 - - - - SE 41 48 22 26 1018.2 - -
22/11:00am 24.7 - - - - SE 37 41 20 22 1018.5 1018.5 -
22/10:30am 24.5 - - - - SE 37 44 20 24 1018.7 - -
22/10:00am 24.8 - - - - SE 39 46 21 25 1018.7 1018.6 -
22/09:30am 24.8 - - - - SE 39 46 21 25 1018.6 - -
22/09:00am 24.8 - - - - SE 41 46 22 25 1018.6 1018.5 -
22/08:30am 24.9 - - - - SE 43 52 23 28 1018.5 - -
22/08:00am 24.8 - - - - SE 44 46 24 25 1018.3 1018.1 -
22/07:30am 24.8 - - - - SE 46 52 25 28 1018.0 - -
22/07:00am 24.6 - - - - SE 46 56 25 30 1017.6 1017.5 -
22/06:30am 24.4 - - - - SE 48 54 26 29 1017.4 - -
22/06:00am 24.4 - - - - SE 46 52 25 28 1017.2 1017.0 -
22/05:30am 24.4 - - - - SE 46 54 25 29 1016.9 - -
22/05:00am 24.3 - - - - SE 46 56 25 30 1016.5 1016.3 -
22/04:30am 24.3 - - - - SE 44 52 24 28 1016.4 - -
22/04:00am 24.4 - - - - SE 44 54 24 29 1016.2 1016.2 -
22/03:30am 24.6 - - - - SE 48 57 26 31 1016.4 - -
22/03:00am 24.5 - - - - SE 48 54 26 29 1016.5 1016.4 -
22/02:30am 24.6 - - - - SE 46 52 25 28 1016.7 - -
22/02:00am 24.5 - - - - SE 50 56 27 30 1016.9 1016.8 -
22/01:30am 24.7 - - - - SE 48 54 26 29 1017.1 - -
22/01:00am 24.6 - - - - SE 48 54 26 29 1017.4 1017.4 -
22/12:30am 24.7 - - - - SE 48 57 26 31 1017.7 - -
22/12:00am 24.9 - - - - SE 43 59 23 32 1018.1 1017.9 -
 
Date/Time
EST
Temp
°C
App
Temp
°C
Dew
Point
°C
Rel
Hum
%
Delta-T
°C
Wind Press
QNH
hPa
Press
MSL
hPa
Rain since
9am
mm
Dir  Spd
km/h
Gust
km/h
Spd
kts
Gust
kts
21/11:30pm 25.0 - - - - SE 43 50 23 27 1018.2 - -
21/11:00pm 24.9 - - - - SE 46 54 25 29 1018.4 1018.3 -
21/10:30pm 25.0 - - - - SE 44 54 24 29 1018.5 - -
21/10:00pm 24.9 - - - - SE 48 59 26 32 1018.3 1018.1 -
21/09:30pm 24.9 - - - - SE 54 61 29 33 1018.1 - -
21/09:00pm 24.7 - - - - SE 50 59 27 32 1017.8 1017.6 -
21/08:30pm 24.9 - - - - SE 41 52 22 28 1017.6 - -
21/08:00pm 25.1 - - - - SE 50 59 27 32 1017.0 1016.8 -
21/07:30pm 24.8 - - - - SE 54 63 29 34 1016.6 - -
21/07:00pm 25.0 - - - - SE 44 54 24 29 1016.3 1016.1 -
21/06:30pm 24.7 - - - - SE 46 56 25 30 1015.8 - -
21/06:00pm 24.8 - - - - SE 50 59 27 32 1015.2 1014.9 -
21/05:30pm 24.8 - - - - SE 48 56 26 30 1014.8 - -
21/05:00pm 24.7 - - - - SE 46 54 25 29 1014.6 1014.5 -
21/04:30pm 24.6 - - - - SE 46 54 25 29 1014.6 - -
21/04:00pm 24.8 - - - - SE 44 56 24 30 1014.3 1014.3 -
21/03:30pm 24.7 - - - - SE 44 56 24 30 1014.2 - -
21/03:00pm 24.6 - - - - SSE 46 52 25 28 1014.1 1014.0 -
21/02:30pm 24.6 - - - - SSE 44 50 24 27 1014.2 - -
21/02:00pm 24.8 - - - - SSE 46 50 25 27 1014.5 1014.5 -
21/01:30pm 24.5 - - - - SSE 43 50 23 27 1014.8 - -
21/01:00pm 24.6 - - - - SSE 43 46 23 25 1015.0 1015.1 -
21/12:30pm 24.5 - - - - SSE 39 44 21 24 1015.3 - -
21/12:00pm 24.9 - - - - SSE 37 44 20 24 1015.6 1015.6 -
21/11:30am 25.0 - - - - SSE 37 43 20 23 1015.9 - -
21/11:00am 24.7 - - - - SSE 37 41 20 22 1016.1 1016.0 -
21/10:30am 24.7 - - - - SE 35 39 19 21 1016.3 - -
21/10:00am 24.6 - - - - SE 32 35 17 19 1016.3 1016.1 -
21/09:30am 24.8 - - - - SE 32 35 17 19 1016.1 - -
21/09:00am 24.7 - - - - SE 32 35 17 19 1016.0 1015.9 -
21/08:30am 24.5 - - - - SE 33 39 18 21 1015.9 - -
21/08:00am 24.7 - - - - ESE 33 37 18 20 1015.4 1015.2 -
21/07:30am 24.4 - - - - SE 33 39 18 21 1015.1 - -
21/07:00am 24.5 - - - - SE 33 39 18 21 1014.8 1014.5 -
21/06:30am 24.3 - - - - SE 35 41 19 22 1014.4 - -
21/06:00am 24.1 - - - - SE 35 43 19 23 1013.9 1013.7 -
21/05:30am 24.1 - - - - SE 37 43 20 23 1013.5 - -
21/05:00am 24.1 - - - - SE 37 43 20 23 1013.2 1013.0 -
21/04:30am 24.0 - - - - SE 35 41 19 22 1013.0 - -
21/04:00am 24.0 - - - - SE 35 41 19 22 1012.8 1012.8 -
21/03:30am 24.0 - - - - SSE 37 43 20 23 1012.6 - -
21/03:00am 23.8 - - - - SSE 37 44 20 24 1012.5 1012.5 -
21/02:30am 24.2 - - - - SSE 37 43 20 23 1012.8 - -
21/02:00am 24.0 - - - - SSE 37 43 20 23 1012.9 1012.9 -
21/01:30am 24.0 - - - - SE 35 43 19 23 1013.3 - -
21/01:00am 23.7 - - - - SE 35 41 19 22 1013.4 1013.4 -
21/12:30am 23.7 - - - - SE 35 41 19 22 1013.7 - -
21/12:00am 23.6 - - - - SSE 35 43 19 23 1014.1 1014.0 -
 
Date/Time
EST
Temp
°C
App
Temp
°C
Dew
Point
°C
Rel
Hum
%
Delta-T
°C
Wind Press
QNH
hPa
Press
MSL
hPa
Rain since
9am
mm
Dir  Spd
km/h
Gust
km/h
Spd
kts
Gust
kts
20/11:30pm 23.6 - - - - SSE 32 39 17 21 1014.1 - -
20/11:00pm 23.5 - - - - SSE 39 43 21 23 1014.0 1013.8 -
20/10:30pm 23.8 - - - - SSE 37 43 20 23 1014.1 - -
20/10:00pm 23.8 - - - - SSE 35 43 19 23 1014.4 1014.3 -
20/09:30pm 23.7 - - - - SSE 37 43 20 23 1014.3 - -
20/09:00pm 23.6 - - - - SSE 35 43 19 23 1014.2 1014.0 -
20/08:30pm 23.7 - - - - SSE 37 43 20 23 1014.0 - -
20/08:00pm 23.8 - - - - SSE 35 39 19 21 1013.9 1013.7 -
20/07:30pm 23.9 - - - - SSE 32 37 17 20 1013.8 - -
20/07:00pm 23.9 - - - - SSE 30 35 16 19 1013.5 1013.3 -
20/06:30pm 23.9 - - - - SSE 33 39 18 21 1013.3 - -
20/06:00pm 23.8 - - - - SSE 30 39 16 21 1012.9 1012.7 -
20/05:30pm 24.2 - - - - SSE 32 35 17 19 1012.7 - -
20/05:00pm 23.9 - - - - SSE 30 35 16 19 1012.7 1012.5 -
20/04:30pm 24.0 - - - - SSE 30 33 16 18 1012.6 - -
20/04:00pm 24.0 - - - - SSE 30 33 16 18 1012.4 1012.2 -
20/03:30pm 23.9 - - - - SSE 30 33 16 18 1012.2 - -
20/03:00pm 23.8 - - - - SSE 28 33 15 18 1012.3 1012.3 -
20/02:30pm 23.8 - - - - SSE 28 33 15 18 1012.6 - -
20/02:00pm 23.8 - - - - SSE 32 35 17 19 1012.8 1012.9 -
20/01:30pm 24.1 - - - - SSE 30 35 16 19 1013.3 - -
20/01:00pm 24.0 - - - - SSE 28 33 15 18 1013.6 1013.7 -
20/12:30pm 23.9 - - - - SSE 30 35 16 19 1013.9 - -
20/12:00pm 23.9 - - - - SSE 30 37 16 20 1014.2 1014.2 -
20/11:30am 23.9 - - - - SSE 32 37 17 20 1014.5 - -
20/11:00am 24.1 - - - - SE 32 35 17 19 1014.6 1014.6 -
20/10:30am 23.9 - - - - SSE 30 37 16 20 1014.9 - -
20/10:00am 23.8 - - - - SSE 33 37 18 20 1014.8 1014.7 -
20/09:30am 23.8 - - - - SSE 33 39 18 21 1014.7 - -
20/09:00am 23.7 - - - - SE 33 43 18 23 1014.6 1014.5 -
20/08:30am 23.7 - - - - SE 30 35 16 19 1014.6 - -
20/08:00am 23.5 - - - - SE 33 41 18 22 1014.4 1014.1 -
20/07:30am 23.7 - - - - SE 33 41 18 22 1014.0 - -
20/07:00am 23.9 - - - - SSE 32 39 17 21 1013.7 1013.5 -
20/06:30am 23.4 - - - - SSE 33 41 18 22 1013.4 - -
20/06:00am 23.3 - - - - SSE 32 37 17 20 1013.1 1012.8 -
20/05:30am 23.2 - - - - SE 30 35 16 19 1012.7 - -
20/05:00am 23.2 - - - - SSE 30 35 16 19 1012.5 1012.4 -
20/04:30am 23.2 - - - - SSE 30 39 16 21 1012.2 - -
20/04:00am 23.4 - - - - SSE 32 39 17 21 1012.0 1011.8 -
20/03:30am 23.4 - - - - SSE 33 43 18 23 1011.7 - -
20/03:00am 23.6 - - - - SSE 30 37 16 20 1011.9 1011.9 -
20/02:30am 23.6 - - - - SSE 33 41 18 22 1012.1 - -
20/02:00am 23.6 - - - - SE 33 41 18 22 1012.6 1012.6 -
20/01:30am 23.7 - - - - SSE 32 37 17 20 1013.0 - -
20/01:00am 23.8 - - - - SSE 32 35 17 19 1013.4 1013.4 -
20/12:30am 23.8 - - - - SSE 33 39 18 21 1013.8 - -
20/12:00am 23.9 - - - - SE 32 39 17 21 1014.2 1014.2 -
 
Date/Time
EST
Temp
°C
App
Temp
°C
Dew
Point
°C
Rel
Hum
%
Delta-T
°C
Wind Press
QNH
hPa
Press
MSL
hPa
Rain since
9am
mm
Dir  Spd
km/h
Gust
km/h
Spd
kts
Gust
kts
19/11:30pm 24.0 - - - - SE 28 35 15 19 1014.6 - -
19/11:00pm 24.0 - - - - SE 30 33 16 18 1014.8 1014.7 -

Other Formats:

Comma delimited format used in spreadsheet applications
http://www.bom.gov.au/fwo/IDQ60801/IDQ60801.95288.axf

JavaScript Object Notation format (JSON) in row-major order
http://www.bom.gov.au/fwo/IDQ60801/IDQ60801.95288.json